Time;durP1;ratioP1;P1;durP2;ratioP2;P2;SDS_P1;SDS_P2;PMS_P1;PMS_P2;Temp;Humidity;BMP_temperature;BMP_pressure;BME280_temperature;BME280_humidity;BME280_pressure;Samples;Min_cycle;Max_cycle;Signal;HPM_P1;HPM_P2
2023/06/21 00:01:38;;;;;;;9.77;6.38;;;;;;;25.69;60.12;100889.19;5087867;28;20045;-78
2023/06/21 00:04:08;;;;;;;10.23;6.05;;;;;;;25.49;60.18;100876.09;5071199;28;20044;-78
2023/06/21 00:06:38;;;;;;;8.95;6.45;;;;;;;25.53;60.56;100875.31;5071151;28;20403;-78
2023/06/21 00:09:06;;;;;;;8.60;6.88;;;;;;;25.67;60.17;100891.59;5054803;28;20057;-78
2023/06/21 00:11:34;;;;;;;7.80;6.03;;;;;;;25.60;60.82;100893.09;5071068;28;20052;-78
2023/06/21 00:14:02;;;;;;;11.20;6.88;;;;;;;25.45;60.70;100886.41;5070746;28;20044;-78
2023/06/21 00:16:31;;;;;;;9.77;5.68;;;;;;;25.58;60.76;100872.22;5037736;28;20048;-78
2023/06/21 00:18:59;;;;;;;9.60;6.38;;;;;;;25.72;60.17;100875.25;5074661;28;20044;-78
2023/06/21 00:21:28;;;;;;;9.13;6.75;;;;;;;25.85;59.95;100881.44;5070194;28;20044;-78
2023/06/21 00:23:56;;;;;;;7.90;6.57;;;;;;;25.82;59.74;100871.00;5053674;28;20052;-78
2023/06/21 00:26:24;;;;;;;8.50;6.32;;;;;;;25.82;59.91;100870.19;5054545;28;20075;-78
2023/06/21 00:28:52;;;;;;;11.07;6.75;;;;;;;25.85;60.19;100880.66;5054454;28;20056;-78
2023/06/21 00:31:21;;;;;;;7.38;5.78;;;;;;;25.84;59.71;100879.00;5052162;28;20056;-78
2023/06/21 00:33:49;;;;;;;8.07;6.38;;;;;;;25.85;59.56;100877.84;5049457;28;20495;-78
2023/06/21 00:36:18;;;;;;;8.63;6.45;;;;;;;25.86;59.91;100876.66;5058742;28;20052;-78
2023/06/21 00:38:48;;;;;;;9.07;6.28;;;;;;;25.84;59.87;100874.22;5074769;28;20487;-78
2023/06/21 00:41:17;;;;;;;8.80;7.30;;;;;;;25.77;60.69;100868.53;5057576;28;20052;-78
2023/06/21 00:43:46;;;;;;;8.32;6.25;;;;;;;25.79;59.94;100859.75;5074803;28;20049;-78
2023/06/21 00:46:15;;;;;;;9.07;6.68;;;;;;;25.73;59.74;100860.06;5060970;28;20060;-78
2023/06/21 00:48:44;;;;;;;7.90;7.05;;;;;;;25.66;59.60;100882.34;5061504;28;20063;-78
2023/06/21 00:51:13;;;;;;;8.35;7.03;;;;;;;25.49;61.13;100889.28;5077525;28;20059;-78
2023/06/21 00:53:42;;;;;;;8.23;6.25;;;;;;;25.40;61.14;100878.31;5061329;28;20505;-78
2023/06/21 00:56:10;;;;;;;8.52;7.03;;;;;;;25.39;61.13;100887.91;5078175;28;20055;-78
2023/06/21 00:58:39;;;;;;;12.00;6.55;;;;;;;25.36;61.41;100895.06;5061440;28;20114;-78
2023/06/21 01:01:07;;;;;;;9.82;7.47;;;;;;;25.36;61.48;100883.06;5077609;28;20044;-78
2023/06/21 01:03:36;;;;;;;8.65;6.68;;;;;;;25.40;61.43;100878.31;5061084;28;20048;-78
2023/06/21 01:06:22;;;;;;;11.63;7.38;;;;;;;25.49;61.65;100895.69;5061166;28;20040;-78
2023/06/21 01:09:10;;;;;;;9.68;7.45;;;;;;;25.40;62.03;100883.94;5077832;28;20501;-78
2023/06/21 01:11:52;;;;;;;13.10;8.13;;;;;;;25.50;61.61;100893.69;5060989;28;20052;-78
2023/06/21 01:14:48;;;;;;;12.80;8.35;;;;;;;25.62;61.12;100889.91;5061488;28;20060;-78
2023/06/21 01:17:19;;;;;;;11.43;8.38;;;;;;;25.45;61.32;100889.22;5077540;28;20052;-78
2023/06/21 01:19:53;;;;;;;14.50;8.88;;;;;;;25.34;62.49;100891.03;5076854;28;20399;-78
2023/06/21 01:22:24;;;;;;;10.48;7.78;;;;;;;25.54;62.30;100891.78;5061245;28;20044;-78
2023/06/21 01:25:24;;;;;;;9.50;7.57;;;;;;;25.73;60.97;100895.69;5073675;28;20053;-78
2023/06/21 01:28:20;;;;;;;12.52;7.50;;;;;;;25.54;61.97;100885.38;5057534;28;20044;-78
2023/06/21 01:30:50;;;;;;;10.82;7.20;;;;;;;25.27;62.45;100899.31;5046181;28;20060;-78
2023/06/21 01:33:19;;;;;;;10.65;6.85;;;;;;;25.30;62.36;100890.16;5074100;28;20399;-78
2023/06/21 01:35:48;;;;;;;10.35;7.35;;;;;;;25.32;62.41;100894.19;5056804;28;20506;-78
2023/06/21 01:38:19;;;;;;;11.10;7.38;;;;;;;25.09;63.37;100891.41;5083231;28;20598;-78
2023/06/21 01:40:47;;;;;;;9.30;6.78;;;;;;;25.16;63.23;100891.53;5081581;28;20048;-78
2023/06/21 01:43:15;;;;;;;9.15;6.88;;;;;;;25.09;63.50;100894.22;5060396;28;20044;-78
2023/06/21 01:45:44;;;;;;;10.48;7.38;;;;;;;24.85;64.30;100887.78;5076470;28;20048;-78
2023/06/21 01:48:14;;;;;;;13.02;7.85;;;;;;;24.87;64.86;100891.00;5076764;28;20395;-78
2023/06/21 01:50:44;;;;;;;12.40;7.88;;;;;;;24.79;65.93;100903.22;5076953;28;20063;-78
2023/06/21 01:53:15;;;;;;;11.48;8.93;;;;;;;24.77;65.54;100898.00;5059587;28;20509;-78
2023/06/21 01:55:48;;;;;;;10.65;7.50;;;;;;;24.81;65.24;100893.31;5077244;28;20052;-78
2023/06/21 01:58:17;;;;;;;11.55;8.13;;;;;;;24.73;65.37;100891.53;5076561;28;20047;-78
2023/06/21 02:00:45;;;;;;;9.68;7.70;;;;;;;24.86;65.05;100888.56;5073367;28;20049;-78
2023/06/21 02:03:15;;;;;;;8.55;7.28;;;;;;;24.99;64.28;100887.25;5056540;28;20053;-78
2023/06/21 02:05:46;;;;;;;10.63;7.63;;;;;;;24.67;65.07;100877.03;5069929;28;20048;-78
2023/06/21 02:08:18;;;;;;;9.05;7.28;;;;;;;24.66;65.56;100875.41;5076848;28;20059;-78
2023/06/21 02:10:46;;;;;;;8.85;6.53;;;;;;;24.96;64.79;100872.00;5072674;28;20052;-78
2023/06/21 02:13:15;;;;;;;9.82;7.53;;;;;;;24.76;64.30;100860.00;5039860;28;20507;-78
2023/06/21 02:15:46;;;;;;;9.23;7.10;;;;;;;24.77;64.35;100863.59;5057308;28;20057;-78
2023/06/21 02:18:15;;;;;;;9.77;7.70;;;;;;;24.65;64.51;100857.03;5056659;28;20052;-78
2023/06/21 02:20:43;;;;;;;9.20;7.15;;;;;;;24.61;64.32;100861.72;5072349;28;20037;-78
2023/06/21 02:23:11;;;;;;;7.95;6.80;;;;;;;24.78;63.95;100859.66;5040197;28;20048;-78
2023/06/21 02:25:39;;;;;;;8.95;7.30;;;;;;;24.76;63.26;100864.78;5056016;28;20060;-78
2023/06/21 02:28:07;;;;;;;7.85;6.55;;;;;;;24.64;63.86;100858.16;5056145;28;20051;-78
2023/06/21 02:30:36;;;;;;;10.75;7.32;;;;;;;24.50;64.48;100866.31;5060906;28;20047;-77
2023/06/21 02:33:04;;;;;;;11.40;7.22;;;;;;;24.53;64.38;100869.16;5076642;28;20048;-77
2023/06/21 02:35:32;;;;;;;11.48;7.25;;;;;;;24.45;64.84;100874.97;5059914;28;20059;-78
2023/06/21 02:38:02;;;;;;;10.65;6.55;;;;;;;24.55;65.15;100869.59;5075705;28;20055;-78
2023/06/21 02:40:32;;;;;;;12.70;8.43;;;;;;;24.35;66.17;100859.63;5072012;28;20059;-78
2023/06/21 02:43:00;;;;;;;9.13;6.85;;;;;;;24.30;66.66;100869.13;5072083;28;20052;-78
2023/06/21 02:45:29;;;;;;;10.13;7.22;;;;;;;24.55;66.02;100868.81;5056059;28;20419;-78
2023/06/21 02:47:57;;;;;;;13.95;7.97;;;;;;;24.47;65.98;100865.06;5072355;28;20048;-78
2023/06/21 02:50:25;;;;;;;10.05;6.97;;;;;;;24.47;66.06;100867.03;5072200;28;20044;-78
2023/06/21 02:52:54;;;;;;;9.98;6.75;;;;;;;24.19;67.76;100866.06;5059089;28;20048;-78
2023/06/21 02:55:23;;;;;;;11.38;7.18;;;;;;;24.13;67.62;100881.53;5076022;28;20052;-78
2023/06/21 02:57:51;;;;;;;8.88;7.28;;;;;;;24.19;67.31;100874.47;5058679;28;20040;-78
2023/06/21 03:00:27;;;;;;;11.25;7.40;;;;;;;24.41;67.08;100875.75;5075156;28;20044;-78
2023/06/21 03:03:00;;;;;;;8.90;6.78;;;;;;;24.48;66.65;100880.66;5075899;28;20490;-78
2023/06/21 03:05:36;;;;;;;9.23;7.35;;;;;;;24.35;66.93;100874.41;5075847;28;20059;-78
2023/06/21 03:08:07;;;;;;;9.25;7.22;;;;;;;24.53;66.31;100887.94;5058795;28;20398;-78
2023/06/21 03:10:36;;;;;;;9.85;7.15;;;;;;;24.61;65.74;100888.88;5058588;28;20044;-78
2023/06/21 03:13:06;;;;;;;7.72;6.53;;;;;;;24.58;64.76;100895.22;5075198;28;20048;-78
2023/06/21 03:15:34;;;;;;;8.65;6.45;;;;;;;24.51;63.50;100895.88;5058648;28;20044;-78
2023/06/21 03:18:03;;;;;;;9.77;6.45;;;;;;;24.56;64.03;100904.81;5059186;28;20048;-78
2023/06/21 03:20:31;;;;;;;8.35;6.38;;;;;;;24.49;63.61;100898.25;5058047;28;20048;-78
2023/06/21 03:23:00;;;;;;;9.30;6.32;;;;;;;24.44;63.33;100896.56;5058429;28;20058;-80
2023/06/21 03:25:29;;;;;;;9.13;6.60;;;;;;;24.31;63.71;100892.28;5074728;28;20044;-80
2023/06/21 03:27:59;;;;;;;11.13;6.55;;;;;;;24.26;63.63;100890.59;5058521;28;20055;-81
2023/06/21 03:30:29;;;;;;;11.32;6.40;;;;;;;24.24;64.44;100898.53;5074740;28;20048;-80
2023/06/21 03:32:59;;;;;;;9.77;6.55;;;;;;;24.27;64.88;100908.97;5074951;28;20520;-80
2023/06/21 03:35:29;;;;;;;8.93;6.88;;;;;;;24.19;66.37;100918.41;5074937;28;20048;-80
2023/06/21 03:37:58;;;;;;;9.60;6.75;;;;;;;24.12;66.81;100916.25;5074822;28;20414;-80
2023/06/21 03:40:34;;;;;;;8.90;6.72;;;;;;;24.24;65.50;100918.13;5074677;28;20048;-80
2023/06/21 03:43:03;;;;;;;7.95;6.55;;;;;;;24.40;65.27;100927.22;5058408;28;20394;-80
2023/06/21 03:45:32;;;;;;;9.38;6.65;;;;;;;24.31;65.51;100926.66;5058727;28;20491;-80
2023/06/21 03:48:05;;;;;;;11.43;6.70;;;;;;;24.50;64.25;100934.25;5058579;28;20058;-80
2023/06/21 03:50:36;;;;;;;10.00;7.30;;;;;;;24.24;65.12;100932.88;5074645;28;20055;-80
2023/06/21 03:53:06;;;;;;;10.85;6.53;;;;;;;24.39;64.49;100936.81;5058369;28;20052;-80
2023/06/21 03:55:37;;;;;;;9.25;6.28;;;;;;;24.16;66.21;100929.13;5074464;28;20048;-80
2023/06/21 03:58:08;;;;;;;11.02;6.50;;;;;;;24.20;65.98;100932.03;5074637;28;20056;-80
2023/06/21 04:00:36;;;;;;;10.23;7.10;;;;;;;24.10;66.43;100950.16;5057929;28;20058;-80
2023/06/21 04:03:05;;;;;;;9.65;6.80;;;;;;;24.05;66.83;100935.63;5058121;28;20048;-80
2023/06/21 04:05:33;;;;;;;11.05;6.78;;;;;;;24.21;66.03;100939.22;5058060;28;20048;-80
2023/06/21 04:08:04;;;;;;;9.90;6.70;;;;;;;24.00;66.45;100942.31;5074303;28;20048;-80
2023/06/21 04:10:33;;;;;;;12.18;7.60;;;;;;;24.20;66.01;100939.59;5073800;28;20493;-80
2023/06/21 04:13:02;;;;;;;10.75;6.70;;;;;;;24.32;65.09;100945.03;5053317;28;20056;-80
2023/06/21 04:15:30;;;;;;;9.80;6.85;;;;;;;24.27;65.38;100945.34;5087570;28;20534;-80
2023/06/21 04:18:00;;;;;;;11.82;6.75;;;;;;;24.52;64.87;100950.66;5055537;28;20045;-80
2023/06/21 04:20:30;;;;;;;10.93;7.15;;;;;;;24.64;64.87;100950.50;5057688;28;20394;-81
2023/06/21 04:22:58;;;;;;;10.18;7.18;;;;;;;24.63;64.60;100948.09;5057922;28;20043;-81
2023/06/21 04:25:27;;;;;;;12.45;7.10;;;;;;;24.64;64.01;100936.50;5057239;28;20048;-80
2023/06/21 04:27:55;;;;;;;14.25;7.30;;;;;;;24.63;64.49;100943.28;5068380;28;20044;-80
2023/06/21 04:30:23;;;;;;;9.45;7.95;;;;;;;24.42;65.84;100940.84;5037876;28;20056;-81
2023/06/21 04:32:52;;;;;;;12.98;7.45;;;;;;;24.47;65.88;100939.75;5054377;28;20049;-81
2023/06/21 04:35:21;;;;;;;22.13;13.38;;;;;;;24.51;69.31;100932.25;5068264;28;20044;-80
2023/06/21 04:37:50;;;;;;;24.95;16.98;;;;;;;24.38;72.25;100940.78;5057653;28;20048;-81
2023/06/21 04:40:19;;;;;;;25.05;15.98;;;;;;;24.46;72.97;100926.94;5057774;28;20048;-81
2023/06/21 04:42:54;;;;;;;29.13;17.70;;;;;;;24.41;73.82;100930.84;5054173;28;20048;-81
2023/06/21 04:45:25;;;;;;;18.00;12.15;;;;;;;24.38;70.86;100940.78;5054085;28;20064;-81
2023/06/21 04:47:57;;;;;;;20.45;11.15;;;;;;;24.48;69.59;100944.19;5054021;28;20071;-81
2023/06/21 04:50:26;;;;;;;15.25;9.32;;;;;;;24.52;67.28;100936.66;5055186;28;20727;-78
2023/06/21 04:52:58;;;;;;;12.88;9.18;;;;;;;24.69;67.29;100944.63;5074056;28;20402;-80
2023/06/21 04:55:28;;;;;;;13.23;9.02;;;;;;;24.82;67.77;100955.69;5074515;28;20052;-81
2023/06/21 04:57:58;;;;;;;15.27;9.30;;;;;;;24.87;67.61;100949.78;5057162;28;20048;-81
2023/06/21 05:00:30;;;;;;;16.52;12.07;;;;;;;24.83;69.93;100951.72;5054082;28;20056;-79
2023/06/21 05:02:58;;;;;;;22.55;13.00;;;;;;;24.92;69.57;100948.69;5037962;28;20041;-76
2023/06/21 05:05:26;;;;;;;25.55;15.18;;;;;;;25.16;68.90;100957.94;5054261;28;20040;-75
2023/06/21 05:07:55;;;;;;;27.05;17.48;;;;;;;25.10;70.35;100957.44;5037003;28;20442;-83
2023/06/21 05:10:23;;;;;;;27.02;17.17;;;;;;;25.14;70.77;100965.88;5056291;28;20048;-80
2023/06/21 05:12:52;;;;;;;27.23;16.83;;;;;;;25.15;70.96;100968.31;5057453;28;20048;-80
2023/06/21 05:15:20;;;;;;;25.80;16.70;;;;;;;25.28;70.24;100962.53;5073972;28;20052;-80
2023/06/21 05:17:48;;;;;;;28.45;19.30;;;;;;;25.23;69.86;100953.25;5068726;28;20044;-80
2023/06/21 05:20:20;;;;;;;29.25;18.95;;;;;;;25.18;70.66;100961.97;5047775;28;20044;-80
2023/06/21 05:22:52;;;;;;;25.67;18.60;;;;;;;25.20;71.71;100970.81;5040571;28;20048;-78
2023/06/21 05:25:20;;;;;;;26.92;18.33;;;;;;;25.31;69.77;100965.41;5057578;28;20483;-79
2023/06/21 05:27:48;;;;;;;30.08;18.25;;;;;;;25.28;69.46;100977.38;5050601;28;20390;-81
2023/06/21 05:30:18;;;;;;;23.48;16.60;;;;;;;25.26;70.07;100970.53;5077172;28;20494;-80
2023/06/21 05:32:46;;;;;;;28.40;18.65;;;;;;;25.34;69.89;100964.69;5058048;28;20044;-80
2023/06/21 05:35:14;;;;;;;26.38;17.17;;;;;;;25.31;69.92;100965.41;5076904;28;20052;-81
2023/06/21 05:37:43;;;;;;;26.27;16.55;;;;;;;25.42;69.36;100971.19;5053122;28;20040;-81
2023/06/21 05:40:11;;;;;;;29.20;17.67;;;;;;;25.48;69.25;100977.31;5057218;28;20060;-81
2023/06/21 05:42:39;;;;;;;25.83;16.88;;;;;;;25.69;68.36;100974.09;5057141;28;20380;-81
2023/06/21 05:45:08;;;;;;;26.23;16.00;;;;;;;25.74;67.79;100970.97;5059467;28;20517;-81
2023/06/21 05:47:36;;;;;;;26.13;16.48;;;;;;;25.81;68.12;100972.28;5076932;28;20052;-81
2023/06/21 05:50:05;;;;;;;23.35;15.63;;;;;;;25.94;67.61;100979.28;5077110;28;20067;-81
2023/06/21 05:52:33;;;;;;;23.73;15.20;;;;;;;26.05;67.13;100970.25;5060536;28;20055;-81
2023/06/21 05:55:02;;;;;;;25.05;15.07;;;;;;;25.99;67.64;100978.16;5060097;28;20048;-80
2023/06/21 05:57:30;;;;;;;25.40;15.93;;;;;;;26.01;68.21;100967.38;5076125;28;20052;-81
2023/06/21 05:59:58;;;;;;;24.65;15.82;;;;;;;26.11;67.90;100966.75;5060193;28;20130;-81
2023/06/21 06:02:26;;;;;;;30.67;16.77;;;;;;;26.15;66.97;100978.00;5059577;28;20048;-80
2023/06/21 06:04:56;;;;;;;24.75;16.10;;;;;;;26.27;66.44;100977.81;5077030;28;20056;-80
2023/06/21 06:07:25;;;;;;;25.15;14.50;;;;;;;26.30;65.84;100988.25;5060270;28;20051;-80
2023/06/21 06:09:54;;;;;;;22.27;14.60;;;;;;;26.51;64.65;100983.31;5077205;28;20134;-80
2023/06/21 06:12:24;;;;;;;23.70;14.27;;;;;;;26.72;63.72;100996.03;5076308;28;20495;-80
2023/06/21 06:14:53;;;;;;;19.75;13.27;;;;;;;26.80;64.52;100992.94;5060345;28;20043;-80
2023/06/21 06:17:22;;;;;;;23.40;13.77;;;;;;;26.86;63.31;100989.75;5060758;28;20399;-80
2023/06/21 06:19:51;;;;;;;22.45;14.63;;;;;;;26.83;64.19;100982.91;5076644;28;20052;-80
2023/06/21 06:22:19;;;;;;;20.80;13.70;;;;;;;26.82;64.47;100986.91;5077122;28;20048;-80
2023/06/21 06:24:49;;;;;;;23.88;14.95;;;;;;;26.94;63.83;100988.69;5076772;28;20055;-80
2023/06/21 06:27:18;;;;;;;22.35;14.23;;;;;;;26.94;63.21;100989.50;5077399;28;20055;-81
2023/06/21 06:29:47;;;;;;;19.30;13.32;;;;;;;27.08;62.38;100988.84;5076883;28;20048;-79
2023/06/21 06:32:16;;;;;;;20.10;13.93;;;;;;;27.19;62.11;100996.59;5076457;28;20048;-79
2023/06/21 06:34:46;;;;;;;20.05;13.45;;;;;;;27.12;62.29;100990.91;5060285;28;20048;-79
2023/06/21 06:37:14;;;;;;;19.30;11.90;;;;;;;27.22;61.07;101004.25;5076798;28;20074;-79
2023/06/21 06:39:50;;;;;;;14.90;10.00;;;;;;;27.34;60.14;101009.59;5094589;28;20055;-79
2023/06/21 06:42:19;;;;;;;16.45;10.45;;;;;;;27.44;58.83;101012.88;5060771;28;20063;-81
2023/06/21 06:44:47;;;;;;;14.80;9.63;;;;;;;27.53;58.06;100990.91;5076796;28;20063;-82
2023/06/21 06:47:16;;;;;;;16.50;9.65;;;;;;;27.39;58.27;100985.94;5076931;28;20063;-82
2023/06/21 06:49:45;;;;;;;16.15;9.10;;;;;;;27.44;57.73;100987.59;5076356;28;20051;-82
2023/06/21 06:52:14;;;;;;;13.07;9.23;;;;;;;27.45;58.09;100986.41;5076058;28;20063;-82
2023/06/21 06:54:43;;;;;;;13.80;9.48;;;;;;;27.53;56.47;100990.09;5075677;28;20044;-82
2023/06/21 06:57:14;;;;;;;16.98;9.40;;;;;;;27.56;55.99;100992.13;5059012;28;20056;-82
2023/06/21 06:59:57;;;;;;;12.85;9.65;;;;;;;27.55;56.72;100999.75;5075982;28;20111;-82
2023/06/21 07:02:26;;;;;;;13.07;8.70;;;;;;;27.67;55.95;101000.69;5059792;28;20056;-82
2023/06/21 07:04:55;;;;;;;10.20;7.45;;;;;;;27.82;55.23;101002.44;5075632;28;20073;-82
2023/06/21 07:07:24;;;;;;;10.95;7.50;;;;;;;28.03;53.59;101000.97;5058773;28;20052;-82
2023/06/21 07:09:53;;;;;;;9.27;6.25;;;;;;;28.15;53.03;100991.41;5075136;28;20048;-82
2023/06/21 07:12:22;;;;;;;12.02;7.28;;;;;;;28.19;52.85;100995.03;5075351;28;20048;-82
2023/06/21 07:14:52;;;;;;;13.55;7.75;;;;;;;28.19;52.19;101003.47;5075540;28;20048;-82
2023/06/21 07:17:23;;;;;;;15.80;8.30;;;;;;;28.20;53.40;100988.19;5075601;28;20056;-82
2023/06/21 07:19:52;;;;;;;9.70;7.25;;;;;;;28.33;53.99;100993.56;5075464;28;20047;-82
2023/06/21 07:22:21;;;;;;;11.60;8.05;;;;;;;28.43;53.97;101004.84;5075499;28;20062;-83
2023/06/21 07:24:50;;;;;;;10.68;7.50;;;;;;;28.39;53.45;100983.53;5075689;28;20055;-84
2023/06/21 07:27:19;;;;;;;7.35;6.25;;;;;;;28.53;52.56;100986.41;5075613;28;20059;-83
2023/06/21 07:29:48;;;;;;;11.20;7.47;;;;;;;28.54;52.82;100990.84;5075518;28;20048;-83
2023/06/21 07:32:17;;;;;;;9.60;6.45;;;;;;;28.65;51.28;100990.91;5075377;28;20051;-83
2023/06/21 07:34:46;;;;;;;10.82;7.05;;;;;;;28.64;51.58;100988.47;5075713;28;20070;-83
2023/06/21 07:37:15;;;;;;;7.35;6.28;;;;;;;28.81;51.84;100981.28;5075644;28;20059;-83
2023/06/21 07:39:44;;;;;;;9.18;6.05;;;;;;;28.84;50.71;100983.31;5075457;28;20077;-83
2023/06/21 07:42:24;;;;;;;10.05;6.30;;;;;;;28.86;50.40;100968.81;5075785;28;20044;-83
2023/06/21 07:44:54;;;;;;;9.63;6.47;;;;;;;28.85;51.46;100976.47;5058540;28;20047;-83
2023/06/21 07:47:23;;;;;;;6.95;5.80;;;;;;;29.05;50.65;100978.97;5075623;28;20044;-82
2023/06/21 07:49:52;;;;;;;11.30;6.20;;;;;;;29.08;51.63;100975.38;5075765;28;20052;-83
2023/06/21 07:52:34;;;;;;;10.70;5.63;;;;;;;29.18;50.02;100979.41;5060611;28;20051;-83
2023/06/21 07:55:05;;;;;;;8.10;5.95;;;;;;;29.19;49.67;100966.94;5075820;28;20047;-82
2023/06/21 07:57:35;;;;;;;8.02;5.53;;;;;;;29.33;50.16;100961.28;5075656;28;20052;-83
2023/06/21 08:00:08;;;;;;;8.70;5.70;;;;;;;29.33;48.40;100964.13;5075572;28;20048;-82
2023/06/21 08:02:44;;;;;;;8.38;5.05;;;;;;;29.54;48.11;100971.00;5075869;28;20048;-82
2023/06/21 08:05:14;;;;;;;8.55;5.47;;;;;;;29.64;47.93;100980.69;5075386;28;20048;-83
2023/06/21 08:07:43;;;;;;;8.57;5.35;;;;;;;29.75;48.02;100975.03;5074640;28;20498;-82
2023/06/21 08:10:12;;;;;;;12.73;5.88;;;;;;;29.82;46.43;100965.75;5074802;28;20225;-84
2023/06/21 08:12:41;;;;;;;9.73;5.35;;;;;;;29.97;45.22;100969.38;5074179;28;20055;-82
2023/06/21 08:15:11;;;;;;;9.05;4.65;;;;;;;29.95;44.67;100964.13;5074628;28;20048;-79
2023/06/21 08:17:42;;;;;;;6.07;5.07;;;;;;;30.10;44.65;100979.03;5074707;28;20055;-81
2023/06/21 08:20:12;;;;;;;9.32;5.53;;;;;;;30.20;44.74;100985.06;5074461;28;20399;-82
2023/06/21 08:22:41;;;;;;;8.45;5.32;;;;;;;30.20;44.83;100974.56;5074563;28;20048;-85
2023/06/21 08:25:11;;;;;;;6.60;5.70;;;;;;;30.15;45.33;100963.72;5058254;28;20056;-83
2023/06/21 08:27:40;;;;;;;9.07;5.78;;;;;;;30.33;44.78;100971.31;5074364;28;20048;-77
2023/06/21 08:30:09;;;;;;;8.60;5.55;;;;;;;30.38;45.27;100956.78;5074668;28;20056;-80
2023/06/21 08:32:38;;;;;;;8.77;6.15;;;;;;;30.47;45.93;100964.81;5074123;28;20051;-80
2023/06/21 08:35:08;;;;;;;9.60;5.53;;;;;;;30.47;45.46;100964.81;5073735;28;20059;-78
2023/06/21 08:37:39;;;;;;;9.85;6.10;;;;;;;30.60;45.33;100951.06;5074655;28;20067;-84
2023/06/21 08:40:08;;;;;;;6.82;5.68;;;;;;;30.67;44.92;100953.84;5063872;28;20059;-82
2023/06/21 08:42:37;;;;;;;8.52;6.15;;;;;;;30.75;44.84;100954.66;5074730;28;20051;-81
2023/06/21 08:45:06;;;;;;;8.68;6.10;;;;;;;30.64;44.90;100954.69;5038571;28;20063;-81
2023/06/21 08:47:37;;;;;;;12.05;6.10;;;;;;;30.74;45.43;100953.03;5038340;28;20071;-81
2023/06/21 08:50:07;;;;;;;10.90;6.05;;;;;;;30.67;44.60;100956.66;5054645;28;20049;-81
2023/06/21 08:52:37;;;;;;;9.77;6.05;;;;;;;30.84;44.57;100955.00;5054063;28;20045;-80
2023/06/21 08:55:09;;;;;;;8.05;6.00;;;;;;;30.94;45.00;100956.16;5071490;28;20060;-81
2023/06/21 08:57:53;;;;;;;6.20;5.45;;;;;;;31.06;44.91;100949.19;5058380;28;20055;-81
2023/06/21 09:00:26;;;;;;;7.80;6.57;;;;;;;31.26;45.94;100949.47;5058636;28;20044;-81
2023/06/21 09:03:14;;;;;;;8.15;5.63;;;;;;;31.26;44.17;100948.69;5058768;28;20053;-81
2023/06/21 09:05:56;;;;;;;8.23;6.38;;;;;;;31.29;44.89;100954.34;5058703;28;20053;-81
2023/06/21 09:08:25;;;;;;;8.77;6.25;;;;;;;31.36;43.75;100961.94;5059038;28;20052;-81
2023/06/21 09:10:56;;;;;;;11.65;6.05;;;;;;;31.18;44.41;100959.22;5059124;28;20060;-80
2023/06/21 09:13:27;;;;;;;8.23;6.05;;;;;;;31.38;44.13;100960.31;5061632;28;20395;-80
2023/06/21 09:15:57;;;;;;;9.27;6.40;;;;;;;31.37;43.73;100964.34;5059860;28;20056;-79
2023/06/21 09:18:35;;;;;;;8.57;5.82;;;;;;;31.42;43.16;100959.50;5077266;28;20048;-79
2023/06/21 09:21:08;;;;;;;7.63;5.57;;;;;;;31.40;43.09;100964.75;5062614;28;20395;-80
2023/06/21 09:23:40;;;;;;;8.65;5.70;;;;;;;31.58;42.94;100970.25;5073765;28;20052;-79
2023/06/21 09:26:10;;;;;;;7.25;6.30;;;;;;;31.62;42.38;100976.69;5057148;28;20373;-79
2023/06/21 09:28:39;;;;;;;7.63;5.93;;;;;;;31.70;42.51;100978.22;5057812;28;20048;-79
2023/06/21 09:31:08;;;;;;;8.73;5.93;;;;;;;31.78;42.27;100974.09;5057801;28;20048;-79
2023/06/21 09:33:37;;;;;;;6.32;5.60;;;;;;;31.77;42.05;100964.00;5057789;28;20056;-80
2023/06/21 09:36:06;;;;;;;8.88;6.22;;;;;;;31.83;42.33;100980.53;5057508;28;20052;-80
2023/06/21 09:38:38;;;;;;;8.68;6.78;;;;;;;31.79;41.29;100989.06;5057363;28;20055;-80
2023/06/21 09:41:07;;;;;;;8.15;5.65;;;;;;;31.97;42.04;100982.47;5040968;28;20071;-79
2023/06/21 09:43:42;;;;;;;9.20;6.03;;;;;;;31.95;42.26;100982.88;5056895;28;20054;-80
2023/06/21 09:46:12;;;;;;;9.18;6.60;;;;;;;32.07;41.28;100978.72;5057541;28;20091;-79
2023/06/21 09:48:41;;;;;;;6.55;5.95;;;;;;;32.13;40.61;100982.69;5057008;28;20055;-80
2023/06/21 09:51:12;;;;;;;11.50;6.25;;;;;;;32.18;40.41;100987.09;5057469;28;20052;-79
2023/06/21 09:53:50;;;;;;;10.63;6.55;;;;;;;32.25;40.30;100978.50;5063908;28;20056;-80
2023/06/21 09:56:20;;;;;;;8.55;6.25;;;;;;;32.32;40.42;100977.63;5081445;28;20049;-79
2023/06/21 09:58:50;;;;;;;8.05;6.45;;;;;;;32.38;39.74;100986.44;5057355;28;20056;-80
2023/06/21 10:01:20;;;;;;;7.75;5.57;;;;;;;32.43;39.41;100981.19;5057932;28;20056;-80
2023/06/21 10:03:49;;;;;;;8.98;5.63;;;;;;;32.57;39.48;100983.03;5058016;28;20064;-79
2023/06/21 10:06:27;;;;;;;9.38;5.70;;;;;;;32.51;39.36;100970.56;5057990;28;20056;-80
2023/06/21 10:08:56;;;;;;;8.15;5.60;;;;;;;32.69;39.38;100973.16;5057412;28;20052;-80
2023/06/21 10:11:26;;;;;;;8.20;6.13;;;;;;;32.70;39.27;100971.91;5073546;28;20060;-80
2023/06/21 10:13:55;;;;;;;10.75;6.03;;;;;;;32.74;39.23;100977.53;5057969;28;20044;-80
2023/06/21 10:16:25;;;;;;;9.68;6.63;;;;;;;32.70;40.90;100988.13;5041203;28;20049;-80
2023/06/21 10:18:59;;;;;;;11.43;6.95;;;;;;;32.81;40.40;100982.31;5057542;28;20053;-80
2023/06/21 10:21:29;;;;;;;11.77;6.78;;;;;;;32.71;40.22;100976.34;5074412;28;20071;-81
2023/06/21 10:24:00;;;;;;;10.50;6.70;;;;;;;32.67;40.71;100977.63;5058333;28;20059;-80
2023/06/21 10:26:30;;;;;;;9.27;6.63;;;;;;;32.81;40.93;100979.47;5057829;28;20040;-80
2023/06/21 10:29:02;;;;;;;10.45;7.40;;;;;;;32.88;40.75;100976.53;5058222;28;20051;-80
2023/06/21 10:31:33;;;;;;;9.30;6.93;;;;;;;32.86;41.14;100970.50;5040789;28;20395;-80
2023/06/21 10:34:05;;;;;;;9.30;7.25;;;;;;;33.06;40.63;100967.00;5060052;28;20347;-80
2023/06/21 10:36:36;;;;;;;10.23;6.85;;;;;;;33.04;40.64;100977.97;5058509;28;20418;-80
2023/06/21 10:39:08;;;;;;;10.68;7.70;;;;;;;33.11;41.17;100973.00;5055995;28;20541;-80
2023/06/21 10:41:39;;;;;;;11.30;7.43;;;;;;;33.17;40.66;100967.66;5039586;28;20415;-80
2023/06/21 10:44:09;;;;;;;8.70;6.65;;;;;;;33.22;40.50;100955.81;5056107;28;20391;-80
2023/06/21 10:46:41;;;;;;;12.80;7.25;;;;;;;33.34;39.54;100959.28;5071771;28;20399;-80
2023/06/21 10:49:11;;;;;;;12.27;6.93;;;;;;;33.30;40.00;100952.88;5056085;28;20045;-80
2023/06/21 10:51:41;;;;;;;9.27;6.82;;;;;;;33.46;38.94;100955.84;5055868;28;20045;-80
2023/06/21 10:54:12;;;;;;;6.68;6.00;;;;;;;33.55;39.07;100951.66;5077451;28;20048;-80
2023/06/21 10:56:42;;;;;;;11.85;7.20;;;;;;;33.54;38.51;100958.56;5068342;28;20067;-80
2023/06/21 10:59:11;;;;;;;8.10;6.47;;;;;;;33.75;38.85;100960.22;5073631;28;20062;-80
2023/06/21 11:01:41;;;;;;;10.88;6.75;;;;;;;33.77;38.04;100967.09;5060723;28;20048;-80
2023/06/21 11:04:10;;;;;;;8.05;6.50;;;;;;;33.78;37.70;100965.06;5061069;28;20052;-80
2023/06/21 11:06:44;;;;;;;12.05;7.70;;;;;;;33.26;39.14;100944.41;5038792;28;20052;-80
2023/06/21 11:09:16;;;;;;;8.07;6.32;;;;;;;33.75;38.29;100951.72;5039085;28;20053;-80
2023/06/21 11:11:51;;;;;;;9.45;5.82;;;;;;;33.66;37.27;100945.81;5073248;28;20056;-80
2023/06/21 11:14:26;;;;;;;13.02;6.07;;;;;;;33.77;37.88;100950.06;5039701;28;20056;-80
2023/06/21 11:17:07;;;;;;;8.63;6.25;;;;;;;33.88;38.26;100938.53;5072981;28;20060;-80
2023/06/21 11:19:37;;;;;;;8.25;6.57;;;;;;;34.04;37.77;100949.19;5038500;28;20071;-80
2023/06/21 11:22:17;;;;;;;12.70;6.82;;;;;;;33.96;37.92;100950.50;5039581;28;20070;-80
2023/06/21 11:25:00;;;;;;;9.13;7.45;;;;;;;33.74;38.77;100933.91;5039736;28;20052;-80
2023/06/21 11:27:30;;;;;;;12.55;6.78;;;;;;;34.08;39.23;100939.78;5040794;28;20049;-80
2023/06/21 11:30:03;;;;;;;8.95;6.82;;;;;;;34.34;38.06;100955.06;5041345;28;20056;-80
2023/06/21 11:32:37;;;;;;;12.30;7.85;;;;;;;34.38;38.69;100960.69;5045518;28;20067;-80
2023/06/21 11:35:09;;;;;;;10.77;7.40;;;;;;;34.47;37.75;100948.72;5044509;28;20052;-80